createdAt,value
2018-07-26T00:01:46.700Z,5.63
2018-07-26T00:04:16.321Z,5.70
2018-07-26T00:06:45.941Z,5.73
2018-07-26T00:09:15.623Z,4.93
2018-07-26T00:11:45.271Z,6.40
2018-07-26T00:14:14.966Z,5.47
2018-07-26T00:16:44.739Z,5.30
2018-07-26T00:19:14.422Z,5.83
2018-07-26T00:21:44.156Z,5.90
2018-07-26T00:24:13.765Z,6.00
2018-07-26T00:26:43.415Z,6.03
2018-07-26T00:29:13.204Z,6.20
2018-07-26T00:31:42.877Z,6.17
2018-07-26T00:34:12.573Z,6.10
2018-07-26T00:36:42.220Z,6.63
2018-07-26T00:39:12.420Z,6.30
2018-07-26T00:41:42.161Z,6.77
2018-07-26T00:44:11.836Z,6.50
2018-07-26T00:46:41.570Z,5.77
2018-07-26T00:49:12.533Z,5.77
2018-07-26T00:51:42.184Z,6.43
2018-07-26T00:54:11.975Z,6.67
2018-07-26T00:56:41.620Z,6.43
2018-07-26T00:59:11.302Z,6.20
2018-07-26T01:01:41.200Z,5.67
2018-07-26T01:04:10.860Z,6.17
2018-07-26T01:06:40.626Z,5.80
2018-07-26T01:09:11.786Z,6.23
2018-07-26T01:11:41.499Z,6.20
2018-07-26T01:14:11.193Z,6.37
2018-07-26T01:16:40.862Z,6.93
2018-07-26T01:19:10.789Z,6.13
2018-07-26T01:21:40.456Z,5.97
2018-07-26T01:24:10.159Z,6.13
2018-07-26T01:26:39.938Z,6.30
2018-07-26T01:29:09.638Z,5.87
2018-07-26T01:31:39.305Z,6.70
2018-07-26T01:34:08.974Z,6.13
2018-07-26T01:36:38.699Z,5.43
2018-07-26T01:39:09.240Z,5.87
2018-07-26T01:41:38.946Z,6.23
2018-07-26T01:44:20.077Z,6.10
2018-07-26T01:46:49.791Z,5.93
2018-07-26T01:49:19.577Z,5.77
2018-07-26T01:51:49.273Z,6.20
2018-07-26T01:54:18.926Z,6.80
2018-07-26T01:56:48.589Z,5.83
2018-07-26T01:59:18.285Z,6.53
2018-07-26T02:01:47.946Z,5.97
2018-07-26T02:04:17.705Z,5.90
2018-07-26T02:06:47.389Z,6.37
2018-07-26T02:09:17.042Z,5.57
2018-07-26T02:11:46.721Z,6.47
2018-07-26T02:14:21.548Z,6.03
2018-07-26T02:16:51.219Z,5.73
2018-07-26T02:19:20.891Z,6.70
2018-07-26T02:21:50.548Z,6.00
2018-07-26T02:24:20.234Z,6.43
2018-07-26T02:26:49.958Z,5.67
2018-07-26T02:29:19.612Z,5.33
2018-07-26T02:31:49.384Z,5.97
2018-07-26T02:34:19.144Z,6.33
2018-07-26T02:36:48.871Z,5.53
2018-07-26T02:39:18.587Z,6.20
2018-07-26T02:41:48.281Z,5.73
2018-07-26T02:44:17.977Z,5.93
2018-07-26T02:46:47.752Z,6.27
2018-07-26T02:49:17.438Z,5.67
2018-07-26T02:51:47.113Z,5.97
2018-07-26T02:54:16.851Z,5.87
2018-07-26T02:56:46.506Z,6.00
2018-07-26T02:59:16.241Z,6.00
2018-07-26T03:01:45.891Z,6.20
2018-07-26T03:04:15.544Z,5.87
2018-07-26T03:06:45.337Z,5.70
2018-07-26T03:09:15.010Z,5.70
2018-07-26T03:11:44.717Z,6.30
2018-07-26T03:14:14.433Z,5.90
2018-07-26T03:16:44.108Z,5.80
2018-07-26T03:19:13.886Z,6.13
2018-07-26T03:21:43.563Z,5.67
2018-07-26T03:24:13.214Z,5.80
2018-07-26T03:26:42.936Z,5.67
2018-07-26T03:29:12.631Z,6.53
2018-07-26T03:31:42.283Z,5.83
2018-07-26T03:34:11.965Z,6.43
2018-07-26T03:36:41.603Z,5.60
2018-07-26T03:39:11.340Z,6.00
2018-07-26T03:41:40.997Z,5.57
2018-07-26T03:44:10.776Z,6.00
2018-07-26T03:46:40.444Z,6.33
2018-07-26T03:49:10.115Z,5.83
2018-07-26T03:51:39.782Z,5.97
2018-07-26T03:54:09.501Z,6.40
2018-07-26T03:56:39.154Z,6.20
2018-07-26T03:59:08.865Z,5.97
2018-07-26T04:01:38.586Z,5.80
2018-07-26T04:04:09.571Z,6.43
2018-07-26T04:06:39.686Z,6.80
2018-07-26T04:09:12.581Z,5.80
2018-07-26T04:11:43.409Z,6.57
2018-07-26T04:14:13.182Z,5.27
2018-07-26T04:16:42.898Z,5.37
2018-07-26T04:19:12.871Z,6.57
2018-07-26T04:21:42.553Z,6.77
2018-07-26T04:24:12.257Z,5.70
2018-07-26T04:26:41.993Z,6.00
2018-07-26T04:29:11.650Z,5.87
2018-07-26T04:31:41.349Z,6.30
2018-07-26T04:34:11.010Z,5.93
2018-07-26T04:36:40.677Z,5.97
2018-07-26T04:39:11.026Z,5.90
2018-07-26T04:41:40.739Z,5.17
2018-07-26T04:44:10.425Z,5.50
2018-07-26T04:46:40.119Z,5.90
2018-07-26T04:49:09.805Z,5.20
2018-07-26T04:51:39.490Z,5.33
2018-07-26T04:54:09.189Z,5.60
2018-07-26T04:56:38.911Z,5.10
2018-07-26T04:59:08.614Z,5.03
2018-07-26T05:01:38.431Z,5.97
2018-07-26T05:04:08.248Z,5.57
2018-07-26T05:06:38.084Z,5.03
2018-07-26T05:09:10.206Z,5.17
2018-07-26T05:11:39.941Z,5.87
2018-07-26T05:14:10.144Z,4.70
2018-07-26T05:16:40.648Z,5.23
2018-07-26T05:19:10.377Z,4.27
2018-07-26T05:21:40.028Z,4.73
2018-07-26T05:24:10.813Z,5.33
2018-07-26T05:26:40.501Z,5.00
2018-07-26T05:29:10.182Z,4.90
2018-07-26T05:31:39.831Z,5.03
2018-07-26T05:34:14.758Z,4.93
2018-07-26T05:36:44.425Z,4.77
2018-07-26T05:39:14.609Z,4.97
2018-07-26T05:41:44.273Z,5.30
2018-07-26T05:44:13.962Z,5.37
2018-07-26T05:46:43.770Z,5.33
2018-07-26T05:49:13.701Z,4.67
2018-07-26T05:51:43.414Z,4.80
2018-07-26T05:54:13.097Z,4.97
2018-07-26T05:56:42.771Z,4.70
2018-07-26T05:59:12.708Z,4.43
2018-07-26T06:01:42.414Z,4.43
2018-07-26T06:04:12.142Z,4.70
2018-07-26T06:06:41.873Z,4.10
2018-07-26T06:09:12.510Z,4.60
2018-07-26T06:11:42.757Z,5.03
2018-07-26T06:14:12.401Z,4.57
2018-07-26T06:16:42.433Z,4.13
2018-07-26T06:19:12.116Z,4.20
2018-07-26T06:21:41.781Z,4.53
2018-07-26T06:24:11.495Z,4.07
2018-07-26T06:26:41.143Z,4.17
2018-07-26T06:29:10.868Z,5.40
2018-07-26T06:31:40.530Z,4.67
2018-07-26T06:34:10.369Z,4.37
2018-07-26T06:36:40.014Z,4.57
2018-07-26T06:39:11.710Z,4.73
2018-07-26T06:41:41.596Z,4.20
2018-07-26T06:44:11.287Z,4.07
2018-07-26T06:46:41.048Z,4.50
2018-07-26T06:49:10.761Z,4.43
2018-07-26T06:51:40.459Z,4.77
2018-07-26T06:54:10.143Z,4.53
2018-07-26T06:56:39.948Z,4.43
2018-07-26T06:59:09.586Z,4.10
2018-07-26T07:01:39.244Z,4.60
2018-07-26T07:04:09.205Z,4.37
2018-07-26T07:06:38.854Z,4.40
2018-07-26T07:09:10.664Z,4.70
2018-07-26T07:11:40.731Z,3.73
2018-07-26T07:14:10.461Z,4.80
2018-07-26T07:16:40.183Z,4.43
2018-07-26T07:19:09.930Z,4.20
2018-07-26T07:21:39.589Z,3.70
2018-07-26T07:24:09.500Z,4.87
2018-07-26T07:26:39.147Z,3.97
2018-07-26T07:29:09.030Z,4.30
2018-07-26T07:31:38.672Z,4.30
2018-07-26T07:34:08.417Z,4.37
2018-07-26T07:36:38.178Z,3.93
2018-07-26T07:39:10.407Z,4.20
2018-07-26T07:41:40.289Z,4.13
2018-07-26T07:44:10.420Z,3.83
2018-07-26T07:46:40.641Z,3.83
2018-07-26T07:49:10.252Z,4.27
2018-07-26T07:51:39.893Z,4.20
2018-07-26T07:54:09.517Z,3.77
2018-07-26T07:56:39.183Z,3.57
2018-07-26T07:59:08.992Z,3.50
2018-07-26T08:01:38.691Z,2.80
2018-07-26T08:04:08.399Z,3.10
2018-07-26T08:06:38.155Z,2.83
2018-07-26T08:09:10.076Z,2.97
2018-07-26T08:11:39.780Z,3.50
2018-07-26T08:14:10.008Z,2.80
2018-07-26T08:16:39.777Z,2.63
2018-07-26T08:19:09.463Z,2.97
2018-07-26T08:21:39.111Z,2.80
2018-07-26T08:24:08.852Z,2.60
2018-07-26T08:26:38.507Z,3.00
2018-07-26T08:29:08.268Z,2.97
2018-07-26T08:31:37.941Z,3.07
2018-07-26T08:34:07.653Z,2.70
2018-07-26T08:36:37.287Z,2.67
2018-07-26T08:39:10.119Z,2.80
2018-07-26T08:41:39.766Z,2.80
2018-07-26T08:44:09.440Z,2.70
2018-07-26T08:46:39.104Z,2.83
2018-07-26T08:49:09.241Z,2.83
2018-07-26T08:51:38.934Z,2.33
2018-07-26T08:54:08.783Z,2.60
2018-07-26T08:56:40.995Z,2.40
2018-07-26T08:59:16.760Z,2.57
2018-07-26T09:01:46.825Z,2.37
2018-07-26T09:04:16.457Z,2.10
2018-07-26T09:06:46.253Z,2.00
2018-07-26T09:09:15.904Z,1.90
2018-07-26T09:11:45.673Z,1.67
2018-07-26T09:14:15.889Z,1.67
2018-07-26T09:16:45.528Z,2.10
2018-07-26T09:19:15.338Z,1.73
2018-07-26T09:21:45.141Z,1.80
2018-07-26T09:24:14.848Z,1.87
2018-07-26T09:26:44.485Z,1.73
2018-07-26T09:29:14.136Z,1.90
2018-07-26T09:31:43.895Z,1.80
2018-07-26T09:34:13.617Z,2.10
2018-07-26T09:36:43.245Z,2.20
2018-07-26T09:39:15.169Z,2.03
2018-07-26T09:41:45.087Z,1.63
2018-07-26T09:44:14.797Z,2.20
2018-07-26T09:46:44.454Z,2.13
2018-07-26T09:49:14.280Z,2.00
2018-07-26T09:51:43.961Z,2.00
2018-07-26T09:54:13.593Z,2.30
2018-07-26T09:56:43.432Z,2.00
2018-07-26T09:59:13.168Z,2.20
2018-07-26T10:01:42.837Z,1.87
2018-07-26T10:04:12.525Z,2.30
2018-07-26T10:06:42.186Z,2.03
2018-07-26T10:09:12.716Z,1.93
2018-07-26T10:11:42.347Z,2.00
2018-07-26T10:14:11.994Z,2.27
2018-07-26T10:16:41.670Z,2.20
2018-07-26T10:19:11.333Z,2.10
2018-07-26T10:21:41.014Z,2.00
2018-07-26T10:24:10.660Z,2.20
2018-07-26T10:26:40.278Z,2.00
2018-07-26T10:29:09.910Z,1.90
2018-07-26T10:31:39.573Z,1.93
2018-07-26T10:34:09.219Z,1.70
2018-07-26T10:36:38.863Z,1.50
2018-07-26T10:39:10.181Z,1.93
2018-07-26T10:41:39.946Z,2.10
2018-07-26T10:44:09.634Z,2.20
2018-07-26T10:46:39.357Z,2.10
2018-07-26T10:49:09.074Z,1.90
2018-07-26T10:51:38.941Z,2.17
2018-07-26T10:54:08.552Z,2.33
2018-07-26T10:56:38.188Z,2.00
2018-07-26T10:59:07.856Z,2.40
2018-07-26T11:01:37.489Z,1.87
2018-07-26T11:04:07.159Z,2.30
2018-07-26T11:06:36.833Z,1.90
2018-07-26T11:09:08.908Z,2.40
2018-07-26T11:11:38.636Z,1.90
2018-07-26T11:14:08.674Z,2.30
2018-07-26T11:16:38.605Z,2.13
2018-07-26T11:19:08.388Z,1.80
2018-07-26T11:21:37.992Z,1.77
2018-07-26T11:24:07.665Z,2.00
2018-07-26T11:26:37.297Z,1.97
2018-07-26T11:29:06.996Z,1.77
2018-07-26T11:31:36.629Z,1.90
2018-07-26T11:34:06.477Z,2.10
2018-07-26T11:36:36.186Z,2.20
2018-07-26T11:39:08.881Z,2.23
2018-07-26T11:41:38.813Z,2.20
2018-07-26T11:44:08.488Z,2.30
2018-07-26T11:46:38.120Z,2.20
2018-07-26T11:49:07.768Z,2.27
2018-07-26T11:51:37.440Z,2.50
2018-07-26T11:54:07.143Z,2.33
2018-07-26T11:56:37.516Z,2.03
2018-07-26T11:59:07.172Z,1.83
2018-07-26T12:01:43.451Z,2.10
2018-07-26T12:04:13.182Z,2.50
2018-07-26T12:06:43.013Z,2.30
2018-07-26T12:09:12.638Z,1.90
2018-07-26T12:11:42.288Z,2.50
2018-07-26T12:14:12.404Z,2.30
2018-07-26T12:16:42.068Z,2.43
2018-07-26T12:19:11.676Z,2.57
2018-07-26T12:21:41.315Z,2.50
2018-07-26T12:24:10.989Z,2.27
2018-07-26T12:26:40.609Z,2.20
2018-07-26T12:29:10.289Z,2.52
2018-07-26T12:31:39.914Z,2.37
2018-07-26T12:34:09.552Z,2.60
2018-07-26T12:36:39.197Z,2.47
2018-07-26T12:39:11.320Z,2.37
2018-07-26T12:41:41.045Z,2.42
2018-07-26T12:44:10.961Z,2.47
2018-07-26T12:46:40.673Z,2.55
2018-07-26T12:49:10.320Z,2.60
2018-07-26T12:51:39.954Z,2.65
2018-07-26T12:54:09.611Z,2.77
2018-07-26T12:56:39.236Z,2.37
2018-07-26T12:59:09.005Z,2.30
2018-07-26T13:01:38.690Z,3.00
2018-07-26T13:04:08.303Z,2.50
2018-07-26T13:06:38.064Z,2.45
2018-07-26T13:09:10.213Z,2.00
2018-07-26T13:11:39.864Z,2.33
2018-07-26T13:14:09.938Z,2.20
2018-07-26T13:16:39.649Z,2.85
2018-07-26T13:19:09.293Z,2.87
2018-07-26T13:21:39.015Z,2.60
2018-07-26T13:24:08.807Z,2.50
2018-07-26T13:26:38.479Z,2.70
2018-07-26T13:29:08.175Z,3.10
2018-07-26T13:31:37.817Z,3.08
2018-07-26T13:34:07.568Z,2.95
2018-07-26T13:36:37.289Z,3.12
2018-07-26T13:39:10.853Z,3.12
2018-07-26T13:41:40.516Z,3.00
2018-07-26T13:44:10.160Z,3.30
2018-07-26T13:46:39.977Z,3.20
2018-07-26T13:49:09.658Z,3.20
2018-07-26T13:51:55.977Z,3.17
2018-07-26T13:54:25.616Z,2.65
2018-07-26T13:56:55.252Z,3.12
2018-07-26T13:59:24.961Z,2.83
2018-07-26T14:01:54.569Z,2.83
2018-07-26T14:04:24.184Z,3.17
2018-07-26T14:06:53.829Z,2.95
2018-07-26T14:09:23.469Z,2.80
2018-07-26T14:11:53.140Z,2.60
2018-07-26T14:14:22.813Z,2.90
2018-07-26T14:16:52.447Z,2.60
2018-07-26T14:19:22.230Z,3.22
2018-07-26T14:21:51.925Z,3.58
2018-07-26T14:24:23.460Z,3.72
2018-07-26T14:26:53.884Z,2.83
2018-07-26T14:29:23.719Z,2.83
2018-07-26T14:31:53.331Z,3.02
2018-07-26T14:34:22.996Z,3.15
2018-07-26T14:36:52.761Z,2.80
2018-07-26T14:39:22.463Z,3.20
2018-07-26T14:41:52.116Z,3.05
2018-07-26T14:44:21.851Z,2.95
2018-07-26T14:46:51.547Z,2.95
2018-07-26T14:49:21.207Z,3.20
2018-07-26T14:51:50.891Z,2.90
2018-07-26T14:54:20.483Z,3.00
2018-07-26T14:56:50.112Z,2.92
2018-07-26T14:59:19.825Z,2.62
2018-07-26T15:01:49.428Z,2.70
2018-07-26T15:04:19.153Z,2.62
2018-07-26T15:06:48.833Z,2.67
2018-07-26T15:09:18.487Z,2.52
2018-07-26T15:11:48.585Z,2.60
2018-07-26T15:14:18.647Z,2.37
2018-07-26T15:16:48.284Z,2.62
2018-07-26T15:19:17.903Z,2.35
2018-07-26T15:21:47.542Z,2.22
2018-07-26T15:24:17.325Z,2.17
2018-07-26T15:26:46.959Z,2.70
2018-07-26T15:29:16.743Z,2.27
2018-07-26T15:31:46.406Z,2.40
2018-07-26T15:34:16.026Z,2.45
2018-07-26T15:36:45.841Z,2.30
2018-07-26T15:39:15.504Z,2.17
2018-07-26T15:41:45.708Z,2.22
2018-07-26T15:44:16.257Z,2.42
2018-07-26T15:46:45.900Z,2.00
2018-07-26T15:49:15.627Z,2.50
2018-07-26T15:51:45.281Z,2.17
2018-07-26T15:54:15.024Z,2.40
2018-07-26T15:56:44.704Z,2.00
2018-07-26T15:59:14.350Z,2.05
2018-07-26T16:01:44.103Z,2.00
2018-07-26T16:04:13.735Z,2.37
2018-07-26T16:06:43.442Z,2.05
2018-07-26T16:09:13.356Z,1.98
2018-07-26T16:11:43.045Z,2.05
2018-07-26T16:14:12.816Z,2.02
2018-07-26T16:16:42.510Z,2.00
2018-07-26T16:19:12.163Z,1.72
2018-07-26T16:21:41.829Z,2.00
2018-07-26T16:24:11.488Z,2.00
2018-07-26T16:26:41.221Z,1.90
2018-07-26T16:29:10.866Z,1.77
2018-07-26T16:31:40.500Z,1.80
2018-07-26T16:34:10.150Z,1.98
2018-07-26T16:36:39.800Z,1.92
2018-07-26T16:39:11.285Z,2.22
2018-07-26T16:41:40.996Z,2.05
2018-07-26T16:44:10.688Z,2.58
2018-07-26T16:46:40.578Z,1.95
2018-07-26T16:49:10.244Z,2.60
2018-07-26T16:51:39.929Z,2.27
2018-07-26T16:54:09.576Z,2.60
2018-07-26T16:56:39.373Z,2.55
2018-07-26T16:59:09.201Z,3.00
2018-07-26T17:01:38.853Z,2.77
2018-07-26T17:04:08.484Z,2.70
2018-07-26T17:06:38.178Z,2.67
2018-07-26T17:09:09.906Z,2.67
2018-07-26T17:11:39.910Z,3.40
2018-07-26T17:14:09.577Z,3.33
2018-07-26T17:16:39.333Z,2.80
2018-07-26T17:19:09.087Z,3.17
2018-07-26T17:21:38.791Z,3.20
2018-07-26T17:24:08.665Z,2.87
2018-07-26T17:26:38.408Z,3.10
2018-07-26T17:29:08.644Z,3.27
2018-07-26T17:31:38.248Z,2.63
2018-07-26T17:34:08.251Z,2.93
2018-07-26T17:36:37.892Z,2.83
2018-07-26T17:39:09.510Z,2.77
2018-07-26T17:41:39.441Z,3.00
2018-07-26T17:44:09.302Z,2.70
2018-07-26T17:46:38.981Z,2.67
2018-07-26T17:49:08.658Z,3.27
2018-07-26T17:51:38.365Z,3.77
2018-07-26T17:54:08.122Z,2.70
2018-07-26T17:56:37.850Z,2.60
2018-07-26T17:59:07.650Z,4.40
2018-07-26T18:01:37.311Z,3.00
2018-07-26T18:04:07.028Z,2.90
2018-07-26T18:06:36.756Z,3.00
2018-07-26T18:09:07.980Z,3.70
2018-07-26T18:11:37.630Z,2.83
2018-07-26T18:14:07.473Z,3.43
2018-07-26T18:16:37.127Z,3.57
2018-07-26T18:19:06.905Z,3.20
2018-07-26T18:21:36.592Z,3.00
2018-07-26T18:24:06.453Z,3.33
2018-07-26T18:26:36.113Z,2.70
2018-07-26T18:29:05.912Z,3.53
2018-07-26T18:31:35.701Z,3.40
2018-07-26T18:34:05.264Z,3.03
2018-07-26T18:36:34.895Z,3.10
2018-07-26T18:39:07.282Z,3.50
2018-07-26T18:41:37.596Z,3.30
2018-07-26T18:44:07.927Z,3.30
2018-07-26T18:46:38.143Z,3.33
2018-07-26T18:49:08.998Z,3.30
2018-07-26T18:51:38.732Z,3.40
2018-07-26T18:54:09.126Z,3.63
2018-07-26T18:56:38.820Z,3.20
2018-07-26T18:59:08.464Z,3.83
2018-07-26T19:01:38.357Z,3.40
2018-07-26T19:04:08.054Z,3.40
2018-07-26T19:06:37.769Z,3.20
2018-07-26T19:09:10.247Z,3.43
2018-07-26T19:11:39.944Z,4.20
2018-07-26T19:14:09.624Z,3.90
2018-07-26T19:16:39.521Z,4.17
2018-07-26T19:19:09.198Z,3.33
2018-07-26T19:21:38.925Z,4.27
2018-07-26T19:24:08.700Z,3.37
2018-07-26T19:26:38.417Z,3.83
2018-07-26T19:29:08.132Z,4.07
2018-07-26T19:31:38.256Z,3.70
2018-07-26T19:34:08.057Z,3.57
2018-07-26T19:36:37.736Z,3.67
2018-07-26T19:39:11.796Z,4.07
2018-07-26T19:41:42.213Z,3.87
2018-07-26T19:44:11.938Z,3.97
2018-07-26T19:46:41.639Z,3.67
2018-07-26T19:49:11.341Z,3.50
2018-07-26T19:51:41.082Z,3.67
2018-07-26T19:54:10.912Z,3.73
2018-07-26T19:56:40.541Z,4.10
2018-07-26T19:59:10.260Z,4.40
2018-07-26T20:01:40.174Z,3.70
2018-07-26T20:04:09.863Z,4.13
2018-07-26T20:06:39.694Z,4.30
2018-07-26T20:09:10.377Z,3.90
2018-07-26T20:11:40.065Z,4.80
2018-07-26T20:14:09.715Z,3.83
2018-07-26T20:16:40.265Z,4.50
2018-07-26T20:19:10.588Z,4.53
2018-07-26T20:21:40.876Z,4.30
2018-07-26T20:24:10.715Z,4.47
2018-07-26T20:26:40.364Z,4.43
2018-07-26T20:29:09.995Z,5.10
2018-07-26T20:31:39.699Z,3.87
2018-07-26T20:34:09.456Z,4.00
2018-07-26T20:36:39.229Z,4.10
2018-07-26T20:39:11.751Z,4.00
2018-07-26T20:41:41.628Z,4.17
2018-07-26T20:44:11.875Z,4.27
2018-07-26T20:46:41.636Z,4.37
2018-07-26T20:49:11.424Z,4.93
2018-07-26T20:51:41.060Z,6.07
2018-07-26T20:54:10.821Z,4.83
2018-07-26T20:56:40.466Z,4.47
2018-07-26T20:59:10.096Z,4.20
2018-07-26T21:01:39.845Z,4.63
2018-07-26T21:04:09.484Z,4.30
2018-07-26T21:06:39.132Z,4.33
2018-07-26T21:09:12.129Z,4.27
2018-07-26T21:11:41.927Z,4.63
2018-07-26T21:14:11.613Z,4.77
2018-07-26T21:16:41.300Z,4.27
2018-07-26T21:19:11.444Z,4.43
2018-07-26T21:21:41.122Z,4.57
2018-07-26T21:24:10.916Z,3.87
2018-07-26T21:26:40.553Z,3.90
2018-07-26T21:29:10.430Z,4.07
2018-07-26T21:31:40.139Z,4.60
2018-07-26T21:34:09.756Z,4.50
2018-07-26T21:36:39.407Z,4.43
2018-07-26T21:39:10.609Z,3.90
2018-07-26T21:41:40.609Z,4.20
2018-07-26T21:44:10.299Z,3.70
2018-07-26T21:46:39.983Z,4.87
2018-07-26T21:49:09.686Z,4.40
2018-07-26T21:51:39.350Z,4.20
2018-07-26T21:54:08.995Z,4.13
2018-07-26T21:56:38.654Z,4.40
2018-07-26T21:59:08.331Z,4.57
2018-07-26T22:01:37.992Z,4.57
2018-07-26T22:04:07.853Z,3.60
2018-07-26T22:06:37.653Z,4.77
2018-07-26T22:09:09.789Z,4.67
2018-07-26T22:11:39.517Z,4.70
2018-07-26T22:14:09.581Z,4.90
2018-07-26T22:16:39.296Z,4.17
2018-07-26T22:19:09.010Z,5.53
2018-07-26T22:21:38.776Z,4.53
2018-07-26T22:24:08.467Z,4.63
2018-07-26T22:26:38.215Z,4.53
2018-07-26T22:29:08.226Z,4.57
2018-07-26T22:31:37.901Z,4.70
2018-07-26T22:34:07.570Z,4.50
2018-07-26T22:36:37.371Z,4.50
2018-07-26T22:39:08.985Z,4.10
2018-07-26T22:41:38.697Z,4.83
2018-07-26T22:44:08.516Z,4.67
2018-07-26T22:46:38.417Z,4.00
2018-07-26T22:49:08.121Z,4.40
2018-07-26T22:51:37.928Z,4.93
2018-07-26T22:54:07.758Z,4.47
2018-07-26T22:56:37.517Z,4.80
2018-07-26T22:59:08.241Z,4.33
2018-07-26T23:01:37.999Z,4.13
2018-07-26T23:04:07.762Z,4.43
2018-07-26T23:06:37.466Z,4.70
2018-07-26T23:09:09.245Z,4.23
2018-07-26T23:11:38.982Z,4.20
2018-07-26T23:14:08.786Z,4.67
2018-07-26T23:16:38.577Z,4.50
2018-07-26T23:19:08.288Z,4.00
2018-07-26T23:21:38.136Z,4.60
2018-07-26T23:24:07.866Z,3.80
2018-07-26T23:26:37.621Z,4.17
2018-07-26T23:29:07.469Z,4.50
2018-07-26T23:31:37.197Z,4.20
2018-07-26T23:34:06.939Z,4.73
2018-07-26T23:36:36.736Z,4.67
2018-07-26T23:39:08.613Z,4.97
2018-07-26T23:41:38.420Z,4.20
2018-07-26T23:44:08.849Z,4.53
2018-07-26T23:46:39.098Z,4.03
2018-07-26T23:49:08.807Z,4.43
2018-07-26T23:51:38.557Z,4.53
2018-07-26T23:54:08.462Z,4.40
2018-07-26T23:56:38.186Z,4.70
2018-07-26T23:59:07.970Z,5.27
